Time;durP1;ratioP1;P1;durP2;ratioP2;P2;SDS_P1;SDS_P2;PMS_P1;PMS_P2;Temp;Humidity;BMP_temperature;BMP_pressure;BME280_temperature;BME280_humidity;BME280_pressure;Samples;Min_cycle;Max_cycle;Signal;HPM_P1;HPM_P2
2023/05/02 00:01:28;;;;;;;;;;;14.20;93.10;;;14.54;58.64;98770.75;4919362;28;124709;-81
2023/05/02 00:04:04;;;;;;;;;;;14.30;93.10;;;14.54;58.66;98782.66;4913392;28;123517;-81
2023/05/02 00:06:31;;;;;;;;;;;14.20;93.10;;;14.51;58.64;98777.75;4911792;28;114496;-82
2023/05/02 00:08:57;;;;;;;;;;;14.20;93.10;;;14.51;58.64;98783.31;4909387;28;113975;-80
2023/05/02 00:11:23;;;;;;;;;;;14.30;93.10;;;14.47;58.66;98776.81;4909799;28;124282;-82
2023/05/02 00:13:49;;;;;;;;;;;14.20;93.10;;;14.49;58.66;98768.13;4910621;28;124350;-80
2023/05/02 00:16:19;;;;;;;;;;;14.20;93.10;;;14.49;58.78;98774.50;4911696;28;114212;-79
2023/05/02 00:18:48;;;;;;;;;;;14.20;93.10;;;14.46;58.85;98775.19;4898166;28;113983;-78
2023/05/02 00:21:14;;;;;;;;;;;14.20;93.10;;;14.46;58.81;98772.41;4904836;28;124581;-77
2023/05/02 00:23:43;;;;;;;;;;;13.50;92.80;;;14.44;58.75;98777.47;4894447;28;124808;-80
2023/05/02 00:26:09;;;;;;;;;;;14.10;93.10;;;14.43;58.85;98780.63;4911824;28;114376;-79
2023/05/02 00:28:36;;;;;;;;;;;14.10;93.10;;;14.40;58.78;98771.00;4911770;28;113576;-78
2023/05/02 00:31:09;;;;;;;;;;;14.10;93.10;;;14.36;58.75;98765.28;4907268;28;123883;-78
2023/05/02 00:33:35;;;;;;;;;;;14.10;93.10;;;14.34;58.79;98775.09;4904065;28;123800;-79
2023/05/02 00:36:01;;;;;;;;;;;14.10;93.10;;;14.34;58.93;98769.53;4913657;28;114795;-78
2023/05/02 00:38:33;;;;;;;;;;;14.10;93.20;;;14.32;58.89;98781.00;4903979;28;114015;-78
2023/05/02 00:40:59;;;;;;;;;;;14.10;93.20;;;14.31;59.14;98778.56;4905788;28;123440;-80
2023/05/02 00:43:30;;;;;;;;;;;14.00;93.10;;;14.29;58.86;98776.13;4904265;28;123902;-78
2023/05/02 00:45:59;;;;;;;;;;;14.10;93.20;;;14.28;59.10;98780.03;4906132;28;115768;-80
2023/05/02 00:48:30;;;;;;;;;;;14.00;93.20;;;14.27;59.11;98777.63;4907127;28;113442;-80
2023/05/02 00:50:57;;;;;;;;;;;14.00;93.20;;;14.25;59.03;98774.34;4911270;28;123343;-83
2023/05/02 00:53:23;;;;;;;;;;;13.90;93.20;;;14.24;58.98;98778.28;4903311;28;124420;-83
2023/05/02 00:55:50;;;;;;;;;;;13.90;93.20;;;14.22;58.97;98781.41;4910430;28;114464;-79
2023/05/02 00:58:19;;;;;;;;;;;13.90;93.20;;;14.19;59.13;98776.53;4909067;28;113424;-83
2023/05/02 01:01:12;;;;;;;;;;;13.90;93.30;;;14.17;58.97;98778.81;4905813;28;124300;-79
2023/05/02 01:03:42;;;;;;;;;;;13.90;93.30;;;14.13;59.04;98784.25;4902824;28;123809;-79
2023/05/02 01:06:23;;;;;;;;;;;12.80;92.80;;;14.11;59.08;98786.53;4896924;28;112486;-78
2023/05/02 01:09:08;;;;;;;;;;;13.80;93.30;;;14.09;59.16;98788.84;4904638;28;114361;-82
2023/05/02 01:11:48;;;;;;;;;;;13.80;93.30;;;14.07;59.32;98781.97;4909435;28;124056;-79
2023/05/02 01:14:14;;;;;;;;;;;13.80;93.30;;;14.04;59.32;98786.25;4909651;28;124318;-81
2023/05/02 01:16:45;;;;;;;;;;;13.80;93.30;;;14.04;59.00;98791.81;4910783;28;114357;-82
2023/05/02 01:19:21;;;;;;;;;;;13.70;93.30;;;14.03;59.24;98790.19;4907299;28;113549;-79
2023/05/02 01:21:48;;;;;;;;;;;13.70;93.30;;;14.03;59.17;98786.59;4902284;28;125031;-83
2023/05/02 01:24:26;;;;;;;;;;;13.70;93.30;;;14.01;58.97;98800.00;4909849;28;124527;-80
2023/05/02 01:27:11;;;;;;;;;;;13.70;93.30;;;13.99;59.20;98797.53;4911207;28;115379;-80
2023/05/02 01:29:42;;;;;;;;;;;13.70;93.30;;;13.97;59.26;98790.69;4907906;28;114715;-79
2023/05/02 01:32:09;;;;;;;;;;;14.00;93.50;;;13.95;59.15;98799.38;4908552;28;125002;-82
2023/05/02 01:34:37;;;;;;;;;;;13.70;93.40;;;13.95;59.41;98799.38;4903220;28;124107;-79
2023/05/02 01:37:10;;;;;;;;;;;14.60;93.80;;;13.93;59.25;98794.16;4898914;28;113304;-81
2023/05/02 01:39:37;;;;;;;;;;;13.60;93.40;;;13.93;59.36;98798.91;4902281;28;113780;-83
2023/05/02 01:42:06;;;;;;;;;;;13.70;93.40;;;13.91;59.28;98798.41;4900214;28;124152;-79
2023/05/02 01:44:34;;;;;;;;;;;13.60;93.40;;;13.91;59.51;98798.41;4901368;28;125170;-82
2023/05/02 01:47:02;;;;;;;;;;;13.70;93.40;;;13.90;59.26;98800.38;4909221;28;114472;-83
2023/05/02 01:49:32;;;;;;;;;;;13.60;93.40;;;13.91;59.27;98798.41;4911587;28;113622;-80
2023/05/02 01:52:03;;;;;;;;;;;13.60;93.50;;;13.90;59.41;98799.56;4908223;28;126545;-83
2023/05/02 01:54:32;;;;;;;;;;;13.60;93.40;;;13.89;59.60;98807.09;4910910;28;123494;-82
2023/05/02 01:57:00;;;;;;;;;;;13.60;93.50;;;13.85;59.48;98800.56;4895412;28;114910;-79
2023/05/02 01:59:33;;;;;;;;;;;13.50;93.40;;;13.85;59.40;98799.75;4890929;28;113638;-81
2023/05/02 02:02:01;;;;;;;;;;;13.60;93.50;;;13.85;59.10;98796.97;4906337;28;126677;-82
2023/05/02 02:04:30;;;;;;;;;;;13.50;93.40;;;13.84;59.31;98798.13;4890156;28;124775;-81
2023/05/02 02:07:01;;;;;;;;;;;14.90;94.10;;;13.83;59.33;98807.59;4890269;28;113457;-80
2023/05/02 02:09:33;;;;;;;;;;;13.50;93.50;;;13.81;59.37;98798.78;4905565;28;113978;-80
2023/05/02 02:12:34;;;;;;;;;;;13.50;93.50;;;13.78;59.02;98811.41;4905507;28;124196;-81
2023/05/02 02:15:20;;;;;;;;;;;13.50;93.50;;;13.76;59.28;98810.09;4909164;28;123908;-83
2023/05/02 02:17:46;;;;;;;;;;;13.40;93.40;;;13.74;59.48;98813.19;4907499;28;115359;-80
2023/05/02 02:20:14;;;;;;;;;;;13.40;93.50;;;13.72;59.48;98818.25;4911831;28;114654;-82
2023/05/02 02:22:43;;;;;;;;;;;13.40;93.50;;;13.72;59.49;98820.22;4907528;28;124975;-82
2023/05/02 02:25:12;;;;;;;;;;;13.40;93.50;;;13.68;59.51;98826.44;4911026;28;123980;-82
2023/05/02 02:27:39;;;;;;;;;;;13.40;93.50;;;13.69;59.67;98830.84;4895210;28;115069;-81
2023/05/02 02:30:08;;;;;;;;;;;13.40;93.50;;;13.68;59.30;98833.97;4912014;28;113807;-81
2023/05/02 02:32:34;;;;;;;;;;;13.40;93.50;;;13.66;59.52;98831.50;4915184;28;123693;-80
2023/05/02 02:35:04;;;;;;;;;;;13.40;93.50;;;13.66;59.55;98839.84;4915003;28;123307;-82
2023/05/02 02:37:34;;;;;;;;;;;13.40;93.60;;;13.64;59.49;98833.81;4913931;28;114138;-84
2023/05/02 02:40:33;;;;;;;;;;;13.30;93.50;;;13.62;59.51;98841.66;4912265;28;113430;-82
2023/05/02 02:43:12;;;;;;;;;;;13.40;93.60;;;13.60;59.60;98841.19;4911657;28;124157;-83
2023/05/02 02:46:20;;;;;;;;;;;13.30;93.60;;;13.56;59.41;98840.19;4901635;28;124212;-80
2023/05/02 02:49:07;;;;;;;;;;;13.30;93.60;;;13.55;59.74;98855.22;4908816;28;114229;-79
2023/05/02 02:51:40;;;;;;;;;;;13.30;93.60;;;13.53;59.87;98848.38;4908782;28;113724;-82
2023/05/02 02:54:21;;;;;;;;;;;13.20;93.60;;;13.53;59.68;98860.28;4912656;28;124410;-80
2023/05/02 02:56:50;;;;;;;;;;;13.20;93.60;;;13.49;59.66;98853.78;4899386;28;124633;-84
2023/05/02 02:59:26;;;;;;;;;;;13.20;93.60;;;13.50;59.63;98869.28;4910509;28;118751;-83
2023/05/02 03:02:07;;;;;;;;;;;13.20;93.70;;;13.49;59.86;98870.44;4906593;28;118727;-80
2023/05/02 03:04:36;;;;;;;;;;;13.20;93.70;;;13.50;59.74;98876.81;4899970;28;123676;-80
2023/05/02 03:07:09;;;;;;;;;;;13.20;93.70;;;13.48;59.79;98879.91;4910021;28;124822;-77
2023/05/02 03:09:46;;;;;;;;;;;13.20;93.80;;;13.46;59.84;98880.25;4900201;28;120949;-81
2023/05/02 03:12:13;;;;;;;;;;;13.20;94.10;;;13.47;59.77;98895.75;4912734;28;118857;-78
2023/05/02 03:14:51;;;;;;;;;;;13.20;93.80;;;13.42;59.87;98897.88;4908850;28;125223;-82
2023/05/02 03:17:19;;;;;;;;;;;13.20;93.80;;;13.38;60.12;98902.44;4900581;28;123148;-79
2023/05/02 03:19:46;;;;;;;;;;;13.10;93.80;;;13.36;60.11;98904.75;4910876;28;119309;-79
2023/05/02 03:22:12;;;;;;;;;;;13.10;93.80;;;13.35;60.13;98903.09;4895972;28;118384;-78
2023/05/02 03:24:38;;;;;;;;;;;13.10;93.90;;;13.34;60.18;98904.25;4908273;28;125047;-79
2023/05/02 03:27:12;;;;;;;;;;;14.70;94.60;;;13.31;60.48;98899.38;4901184;28;124278;-77
2023/05/02 03:29:38;;;;;;;;;;;13.10;94.00;;;13.26;60.40;98901.16;4905909;28;119417;-79
2023/05/02 03:32:08;;;;;;;;;;;13.00;94.00;;;13.25;60.59;98905.06;4911626;28;118007;-77
2023/05/02 03:34:34;;;;;;;;;;;13.00;94.00;;;13.25;60.78;98907.81;4904065;28;124042;-81
2023/05/02 03:37:00;;;;;;;;;;;13.10;94.10;;;13.26;60.59;98919.75;4902621;28;123418;-81
2023/05/02 03:39:27;;;;;;;;;;;13.00;94.10;;;13.28;60.76;98925.00;4910764;28;118415;-79
2023/05/02 03:41:55;;;;;;;;;;;13.00;94.10;;;13.30;60.87;98929.09;4908824;28;119176;-82
2023/05/02 03:44:23;;;;;;;;;;;13.00;94.20;;;13.32;60.81;98926.78;4907939;28;125112;-79
2023/05/02 03:46:49;;;;;;;;;;;13.00;94.20;;;13.35;60.68;98930.84;4910774;28;124033;-79
2023/05/02 03:49:21;;;;;;;;;;;13.00;94.30;;;13.38;60.75;98932.97;4903389;28;119427;-80
2023/05/02 03:51:47;;;;;;;;;;;13.00;94.30;;;13.39;60.81;98942.94;4918851;28;118034;-78
2023/05/02 03:54:13;;;;;;;;;;;13.00;94.30;;;13.41;60.76;98935.13;4914539;28;125023;-78
2023/05/02 03:56:46;;;;;;;;;;;13.10;94.40;;;13.43;60.84;98939.19;4895244;28;123769;-80
2023/05/02 03:59:14;;;;;;;;;;;13.00;94.40;;;13.45;60.76;98947.19;4899170;28;119409;-82
2023/05/02 04:01:43;;;;;;;;;;;13.10;94.40;;;13.47;60.73;98944.91;4908667;28;119799;-81
2023/05/02 04:04:10;;;;;;;;;;;13.10;94.40;;;13.47;60.74;98950.44;4903641;28;124593;-79
2023/05/02 04:06:39;;;;;;;;;;;13.10;94.40;;;13.48;60.58;98946.50;4911931;28;122577;-81
2023/05/02 04:09:07;;;;;;;;;;;13.10;94.40;;;13.52;60.61;98955.03;4908951;28;119441;-83
2023/05/02 04:11:33;;;;;;;;;;;13.20;94.60;;;13.51;60.74;98950.59;4910788;28;118607;-79
2023/05/02 04:13:59;;;;;;;;;;;13.10;94.40;;;13.51;60.45;98953.38;4911092;28;124103;-80
2023/05/02 04:16:26;;;;;;;;;;;13.10;94.40;;;13.50;60.52;98957.31;4908223;28;123942;-79
2023/05/02 04:18:55;;;;;;;;;;;13.20;94.40;;;13.47;60.63;98956.00;4909907;28;118563;-79
2023/05/02 04:21:21;;;;;;;;;;;13.10;94.40;;;13.48;60.52;98954.84;4906428;28;118783;-80
2023/05/02 04:23:48;;;;;;;;;;;13.10;94.40;;;13.50;60.58;98966.44;4908374;28;124313;-79
2023/05/02 04:26:15;;;;;;;;;;;13.20;94.40;;;13.51;60.57;98956.97;4910138;28;123379;-80
2023/05/02 04:28:43;;;;;;;;;;;13.20;94.40;;;13.52;60.65;98958.59;4907420;28;120274;-81
2023/05/02 04:31:10;;;;;;;;;;;13.20;94.50;;;13.53;60.65;98957.44;4907849;28;118684;-81
2023/05/02 04:33:36;;;;;;;;;;;13.20;94.50;;;13.57;60.61;98961.22;4908184;28;124269;-83
2023/05/02 04:36:02;;;;;;;;;;;13.20;94.40;;;13.59;60.59;98969.19;4907857;28;123680;-81
2023/05/02 04:38:34;;;;;;;;;;;13.20;94.40;;;13.64;60.37;98969.84;4911656;28;119285;-78
2023/05/02 04:41:00;;;;;;;;;;;13.20;94.50;;;13.64;60.59;98969.84;4908792;28;118753;-80
2023/05/02 04:43:27;;;;;;;;;;;13.30;94.50;;;13.66;60.65;98964.78;4907146;28;124203;-82
2023/05/02 04:45:57;;;;;;;;;;;13.30;94.50;;;13.67;60.58;98972.00;4907969;28;123909;-81
2023/05/02 04:48:25;;;;;;;;;;;13.30;94.50;;;13.70;60.46;98964.94;4906034;28;120451;-83
2023/05/02 04:50:52;;;;;;;;;;;13.30;94.50;;;13.71;60.49;98974.91;4900440;28;119975;-81
2023/05/02 04:53:21;;;;;;;;;;;13.30;94.50;;;13.72;60.27;98967.41;4906408;28;124340;-82
2023/05/02 04:55:47;;;;;;;;;;;13.30;94.50;;;13.74;60.50;98981.78;4909232;28;123426;-77
2023/05/02 04:58:13;;;;;;;;;;;13.30;94.50;;;13.76;60.34;98976.72;4908376;28;119102;-80
2023/05/02 05:00:40;;;;;;;;;;;13.40;94.50;;;13.77;60.66;98979.13;4906774;28;117674;-81
2023/05/02 05:03:09;;;;;;;;;;;13.30;94.50;;;13.80;60.52;98986.81;4906350;28;123344;-78
2023/05/02 05:05:35;;;;;;;;;;;13.40;94.60;;;13.81;60.30;98982.91;4907639;28;123476;-77
2023/05/02 05:08:02;;;;;;;;;;;13.40;94.60;;;13.83;60.28;98986.16;4907746;28;119324;-78
2023/05/02 05:10:39;;;;;;;;;;;13.40;94.60;;;13.85;60.57;98991.38;4907726;28;118239;-82
2023/05/02 05:13:08;;;;;;;;;;;13.50;94.70;;;13.87;60.49;98992.69;4901375;28;126298;-78
2023/05/02 05:15:34;;;;;;;;;;;13.40;94.60;;;13.90;60.36;98996.78;4898126;28;124324;-79
2023/05/02 05:18:01;;;;;;;;;;;13.50;94.60;;;13.92;60.24;99000.84;4892341;28;118894;-79
2023/05/02 05:20:27;;;;;;;;;;;13.50;94.50;;;13.93;60.26;99005.25;4898769;28;119202;-83
2023/05/02 05:22:56;;;;;;;;;;;13.50;94.50;;;13.96;60.21;99012.13;4917063;28;122921;-79
2023/05/02 05:25:25;;;;;;;;;;;13.50;94.50;;;14.00;60.14;99026.19;4907257;28;123654;-80
2023/05/02 05:27:51;;;;;;;;;;;13.60;94.50;;;14.03;60.25;99022.72;4902839;28;119378;-77
2023/05/02 05:30:20;;;;;;;;;;;13.60;94.60;;;14.11;61.24;99025.50;4906304;28;118932;-77
2023/05/02 05:32:47;;;;;;;;;;;13.60;95.10;;;14.19;61.08;99032.19;4903721;28;124152;-77
2023/05/02 05:35:13;;;;;;;;;;;13.70;95.20;;;14.24;61.05;99032.00;4905059;28;123866;-78
2023/05/02 05:37:47;;;;;;;;;;;13.60;95.20;;;14.27;60.39;99033.31;4901290;28;120202;-78
2023/05/02 05:40:13;;;;;;;;;;;13.70;95.00;;;14.27;59.84;99047.19;4909033;28;119021;-77
2023/05/02 05:42:39;;;;;;;;;;;13.80;94.80;;;14.24;59.94;99053.41;4907143;28;124998;-79
2023/05/02 05:45:09;;;;;;;;;;;13.80;94.60;;;14.25;59.38;99047.53;4900740;28;124316;-79
2023/05/02 05:47:35;;;;;;;;;;;13.80;94.40;;;14.25;59.04;99049.50;4896445;28;119503;-78
2023/05/02 05:50:11;;;;;;;;;;;13.80;94.10;;;14.21;58.89;99051.28;4897054;28;118706;-78
2023/05/02 05:52:38;;;;;;;;;;;13.80;94.10;;;14.18;59.18;99054.72;4893358;28;123966;-81
2023/05/02 05:55:15;;;;;;;;;;;13.80;94.00;;;14.18;58.92;99057.50;4907292;28;124577;-78
2023/05/02 05:57:41;;;;;;;;;;;13.80;93.90;;;14.17;58.93;99061.44;4906944;28;119966;-77
2023/05/02 06:00:11;;;;;;;;;;;13.80;93.90;;;14.17;58.83;99067.00;4921990;28;118624;-78
2023/05/02 06:02:37;;;;;;;;;;;13.80;93.90;;;14.14;58.85;99063.72;4902446;28;124455;-81
2023/05/02 06:05:03;;;;;;;;;;;13.80;93.80;;;14.13;59.14;99067.66;4901097;28;124420;-79
2023/05/02 06:07:36;;;;;;;;;;;13.80;93.80;;;14.13;58.73;99070.44;4909839;28;119183;-81
2023/05/02 06:10:02;;;;;;;;;;;13.80;93.80;;;14.13;58.78;99076.00;4907640;28;118775;-78
2023/05/02 06:12:29;;;;;;;;;;;13.80;93.70;;;14.10;58.93;99078.59;4907072;28;124026;-77
2023/05/02 06:14:59;;;;;;;;;;;13.80;93.70;;;14.09;58.88;99082.53;4901368;28;123793;-80
2023/05/02 06:17:25;;;;;;;;;;;13.80;93.70;;;14.07;58.94;99082.84;4908768;28;119619;-78
2023/05/02 06:19:51;;;;;;;;;;;13.80;93.70;;;14.08;59.04;99087.28;4907074;28;119314;-79
2023/05/02 06:22:23;;;;;;;;;;;13.80;93.70;;;14.11;58.99;99085.81;4904835;28;124271;-77
2023/05/02 06:24:50;;;;;;;;;;;13.80;93.70;;;14.12;59.10;99088.25;4893762;28;124034;-79
2023/05/02 06:27:16;;;;;;;;;;;13.80;93.80;;;14.12;59.01;99092.97;4906783;28;120106;-78
2023/05/02 06:29:45;;;;;;;;;;;13.80;93.70;;;14.14;58.78;99101.81;4906648;28;120005;-78
2023/05/02 06:32:12;;;;;;;;;;;13.80;93.70;;;14.14;58.75;99096.25;4907037;28;124220;-78
2023/05/02 06:34:38;;;;;;;;;;;13.80;93.80;;;14.13;58.97;99102.94;4900604;28;124090;-80
2023/05/02 06:37:05;;;;;;;;;;;13.80;93.80;;;14.12;58.99;99098.53;4899493;28;119648;-79
2023/05/02 06:39:33;;;;;;;;;;;13.80;93.80;;;14.14;59.12;99110.97;4905282;28;118784;-78
2023/05/02 06:42:00;;;;;;;;;;;13.80;93.90;;;14.17;59.03;99108.69;4904922;28;124141;-81
2023/05/02 06:44:29;;;;;;;;;;;13.80;93.80;;;14.15;59.12;99104.25;4902042;28;123983;-78
2023/05/02 06:46:57;;;;;;;;;;;13.80;93.90;;;14.17;59.02;99100.34;4898231;28;120329;-79
2023/05/02 06:49:24;;;;;;;;;;;13.80;93.90;;;14.19;58.97;99109.19;4895096;28;118471;-80
2023/05/02 06:51:50;;;;;;;;;;;13.80;93.90;;;14.21;59.01;99107.69;4899543;28;124182;-78
2023/05/02 06:54:17;;;;;;;;;;;13.50;93.70;;;14.21;58.93;99118.81;4900596;28;124022;-77
2023/05/02 06:56:46;;;;;;;;;;;13.90;93.90;;;14.20;58.98;99116.34;4905879;28;120004;-77
2023/05/02 06:59:12;;;;;;;;;;;13.80;93.80;;;14.16;59.00;99118.97;4906359;28;118890;-78
2023/05/02 07:01:39;;;;;;;;;;;13.80;93.80;;;14.15;58.99;99125.66;4893319;28;124389;-77
2023/05/02 07:04:14;;;;;;;;;;;13.80;93.80;;;14.13;59.15;99128.78;4892825;28;124001;-79
2023/05/02 07:06:40;;;;;;;;;;;13.80;93.80;;;14.12;58.96;99132.69;4906790;28;120108;-78
2023/05/02 07:09:09;;;;;;;;;;;13.80;93.80;;;14.13;59.17;99127.94;4908537;28;118177;-79
2023/05/02 07:11:35;;;;;;;;;;;13.80;93.80;;;14.12;58.96;99137.44;4906018;28;124373;-78
2023/05/02 07:14:02;;;;;;;;;;;13.80;93.80;;;14.11;59.29;99147.75;4906777;28;123836;-78
2023/05/02 07:16:29;;;;;;;;;;;13.80;93.80;;;14.13;58.99;99150.19;4908133;28;119924;-77
2023/05/02 07:18:57;;;;;;;;;;;13.80;93.80;;;14.12;58.94;99146.59;4908367;28;119795;-81
2023/05/02 07:21:24;;;;;;;;;;;13.80;93.90;;;14.13;59.34;99159.38;4909779;28;124746;-78
2023/05/02 07:23:50;;;;;;;;;;;13.70;93.90;;;14.12;59.49;99154.94;4909403;28;124068;-78
2023/05/02 07:26:17;;;;;;;;;;;13.80;94.00;;;14.09;59.00;99155.59;4909349;28;119168;-78
2023/05/02 07:28:49;;;;;;;;;;;13.80;93.90;;;14.11;58.90;99158.88;4911296;28;117901;-77
2023/05/02 07:31:15;;;;;;;;;;;13.70;93.90;;;14.09;59.16;99161.16;4911420;28;124106;-79
2023/05/02 07:33:45;;;;;;;;;;;14.20;94.10;;;14.08;59.00;99159.53;4909953;28;124626;-78
2023/05/02 07:36:11;;;;;;;;;;;13.70;93.90;;;14.03;59.12;99150.53;4907570;28;119221;-77
2023/05/02 07:38:37;;;;;;;;;;;13.80;93.90;;;14.03;59.35;99153.31;4900259;28;118862;-77
2023/05/02 07:41:04;;;;;;;;;;;13.80;94.00;;;14.02;59.45;99155.25;4895418;28;124410;-80
2023/05/02 07:43:35;;;;;;;;;;;13.70;93.90;;;14.02;59.27;99152.47;4909874;28;124109;-78
2023/05/02 07:46:05;;;;;;;;;;;13.70;94.00;;;14.02;59.62;99155.25;4909477;28;119992;-81
2023/05/02 07:48:33;;;;;;;;;;;13.70;94.10;;;14.04;59.66;99163.28;4910689;28;118854;-81
2023/05/02 07:51:12;;;;;;;;;;;13.80;94.10;;;14.09;59.61;99160.34;4912875;28;124536;-78
2023/05/02 07:53:38;;;;;;;;;;;13.80;94.20;;;14.11;59.77;99169.97;4912350;28;124204;-80
2023/05/02 07:56:06;;;;;;;;;;;13.80;94.20;;;14.15;59.71;99165.38;4914519;28;119650;-79
2023/05/02 07:58:37;;;;;;;;;;;13.80;94.20;;;14.19;59.67;99170.31;4916515;28;118677;-79
2023/05/02 08:01:04;;;;;;;;;;;13.80;94.20;;;14.23;59.56;99174.06;4909167;28;124158;-79
2023/05/02 08:03:36;;;;;;;;;;;13.90;94.20;;;14.27;59.54;99177.84;4909148;28;124066;-78
2023/05/02 08:06:02;;;;;;;;;;;13.90;94.20;;;14.28;59.54;99179.44;4904191;28;120417;-78
2023/05/02 08:08:29;;;;;;;;;;;14.00;94.20;;;14.29;59.66;99186.63;4907629;28;119768;-77
2023/05/02 08:10:57;;;;;;;;;;;14.00;94.20;;;14.31;59.54;99190.72;4908348;28;124484;-79
2023/05/02 08:13:23;;;;;;;;;;;14.00;94.30;;;14.32;59.53;99197.94;4910486;28;123399;-79
2023/05/02 08:15:50;;;;;;;;;;;13.90;94.20;;;14.30;59.84;99193.84;4909479;28;119475;-78
2023/05/02 08:18:16;;;;;;;;;;;14.00;94.30;;;14.32;59.82;99197.94;4899774;28;118755;-78
2023/05/02 08:20:47;;;;;;;;;;;14.00;94.20;;;14.34;59.49;99197.59;4895364;28;124663;-78
2023/05/02 08:23:13;;;;;;;;;;;14.00;94.20;;;14.34;59.54;99200.38;4895731;28;122951;-78
2023/05/02 08:25:39;;;;;;;;;;;14.00;94.20;;;14.34;59.64;99209.53;4924906;28;118462;-78
2023/05/02 08:28:14;;;;;;;;;;;14.00;94.20;;;14.37;59.46;99199.72;4909447;28;118999;-81
2023/05/02 08:30:41;;;;;;;;;;;14.10;94.20;;;14.39;59.50;99207.72;4908511;28;124381;-77
2023/05/02 08:33:10;;;;;;;;;;;14.10;94.20;;;14.41;59.28;99206.25;4908872;28;123339;-80
2023/05/02 08:35:37;;;;;;;;;;;14.10;94.20;;;14.49;59.41;99212.97;4907000;28;119482;-76
2023/05/02 08:38:03;;;;;;;;;;;14.20;94.20;;;14.52;59.22;99215.09;4908081;28;118880;-81
2023/05/02 08:40:36;;;;;;;;;;;14.20;94.10;;;14.54;59.06;99207.28;4908269;28;124242;-78
2023/05/02 08:43:09;;;;;;;;;;;14.20;94.10;;;14.54;59.07;99210.88;4894212;28;123039;-78
2023/05/02 08:45:40;;;;;;;;;;;14.20;94.10;;;14.61;58.86;99207.56;4907619;28;119500;-80
2023/05/02 08:48:11;;;;;;;;;;;14.20;94.10;;;14.69;59.03;99205.94;4909158;28;118797;-78
2023/05/02 08:50:41;;;;;;;;;;;14.30;94.10;;;14.76;58.89;99214.59;4898248;28;124404;-78
2023/05/02 08:53:12;;;;;;;;;;;14.40;94.10;;;14.84;58.70;99213.75;4903997;28;124383;-79
2023/05/02 08:55:40;;;;;;;;;;;14.40;94.00;;;14.91;58.62;99213.25;4906114;28;120196;-78
2023/05/02 08:58:10;;;;;;;;;;;14.50;94.00;;;14.95;58.43;99215.03;4908519;28;119797;-78
2023/05/02 09:00:40;;;;;;;;;;;14.60;93.90;;;15.02;58.18;99218.13;4906337;28;124208;-79
2023/05/02 09:03:28;;;;;;;;;;;14.60;93.80;;;15.09;58.11;99217.59;4907250;28;124644;-78
2023/05/02 09:06:13;;;;;;;;;;;14.70;93.80;;;15.16;57.81;99219.91;4894375;28;119141;-80
2023/05/02 09:08:41;;;;;;;;;;;14.70;93.70;;;15.25;57.88;99223.47;4907817;28;118748;-78
2023/05/02 09:11:12;;;;;;;;;;;14.80;93.70;;;15.34;57.39;99215.06;4907572;28;124281;-80
2023/05/02 09:13:51;;;;;;;;;;;14.80;93.60;;;15.42;57.05;99220.63;4897921;28;124039;-78
2023/05/02 09:16:24;;;;;;;;;;;14.90;93.60;;;15.50;57.20;99226.47;4909080;28;119423;-80
2023/05/02 09:18:57;;;;;;;;;;;15.00;93.40;;;15.57;56.86;99222.00;4907000;28;119013;-78
2023/05/02 09:21:45;;;;;;;;;;;15.10;93.40;;;15.66;56.73;99225.59;4906074;28;123606;-79
2023/05/02 09:24:17;;;;;;;;;;;15.20;93.30;;;15.74;56.67;99223.09;4894500;28;123965;-80
2023/05/02 09:26:59;;;;;;;;;;;15.20;93.20;;;15.80;56.11;99222.56;4905141;28;119658;-82
2023/05/02 09:29:28;;;;;;;;;;;15.30;93.10;;;15.87;55.89;99219.25;4889844;28;118836;-79
2023/05/02 09:32:02;;;;;;;;;;;15.30;92.90;;;15.92;55.65;99221.03;4907121;28;124268;-79
2023/05/02 09:34:29;;;;;;;;;;;15.40;92.70;;;15.97;55.83;99218.03;4908077;28;124153;-79
2023/05/02 09:36:57;;;;;;;;;;;15.50;92.60;;;16.00;55.31;99215.38;4909743;28;119080;-79
2023/05/02 09:39:28;;;;;;;;;;;15.50;92.50;;;16.08;55.24;99227.63;4907264;28;118994;-78
2023/05/02 09:41:58;;;;;;;;;;;15.60;92.60;;;16.16;55.14;99223.97;4909360;28;124307;-80
2023/05/02 09:44:26;;;;;;;;;;;15.60;92.60;;;16.24;55.21;99220.28;4905781;28;124282;-79
2023/05/02 09:46:57;;;;;;;;;;;15.70;92.40;;;16.31;54.59;99217.78;4906717;28;120327;-81
2023/05/02 09:49:48;;;;;;;;;;;15.70;92.30;;;16.42;54.47;99214.59;4906506;28;119927;-82
2023/05/02 09:52:17;;;;;;;;;;;15.80;92.30;;;16.50;54.48;99208.94;4910043;28;124337;-79
2023/05/02 09:54:45;;;;;;;;;;;15.90;92.30;;;16.57;53.67;99208.38;4905637;28;124208;-82
2023/05/02 09:57:12;;;;;;;;;;;16.00;92.10;;;16.66;53.46;99214.69;4918504;28;119557;-80
2023/05/02 09:59:51;;;;;;;;;;;16.10;91.90;;;16.71;53.45;99210.84;4897639;28;118747;-80
2023/05/02 10:02:24;;;;;;;;;;;14.60;91.20;;;16.69;53.63;99218.78;4907802;28;123686;-77
2023/05/02 10:04:52;;;;;;;;;;;16.20;91.70;;;16.69;53.24;99218.78;4896746;28;123665;-81
2023/05/02 10:07:21;;;;;;;;;;;16.20;91.40;;;16.71;52.87;99220.06;4906120;28;120001;-79
2023/05/02 10:09:49;;;;;;;;;;;16.30;91.40;;;16.65;52.61;99227.00;4883182;28;118265;-80
2023/05/02 10:12:16;;;;;;;;;;;16.10;91.00;;;16.63;52.89;99229.34;4889163;28;124390;-80
2023/05/02 10:14:48;;;;;;;;;;;16.30;91.10;;;16.66;52.97;99236.22;4907714;28;124071;-78
2023/05/02 10:17:28;;;;;;;;;;;16.30;91.10;;;16.69;52.49;99227.16;4904195;28;119460;-79
2023/05/02 10:20:11;;;;;;;;;;;16.30;90.90;;;16.72;52.79;99224.47;4886653;28;118929;-78
2023/05/02 10:22:38;;;;;;;;;;;16.30;91.00;;;16.75;52.22;99218.22;4905809;28;123746;-78
2023/05/02 10:25:12;;;;;;;;;;;16.40;90.70;;;16.77;51.66;99220.69;4896236;28;124214;-78
2023/05/02 10:27:38;;;;;;;;;;;16.30;90.40;;;16.82;51.96;99216.84;4905551;28;120132;-78
2023/05/02 10:30:05;;;;;;;;;;;16.40;90.50;;;16.86;51.74;99215.03;4899346;28;118619;-77
2023/05/02 10:32:35;;;;;;;;;;;16.40;90.40;;;16.93;51.86;99212.50;4905002;28;124546;-80
2023/05/02 10:35:04;;;;;;;;;;;16.50;90.50;;;17.01;51.27;99208.78;4909544;28;124091;-78
2023/05/02 10:37:36;;;;;;;;;;;16.60;90.20;;;17.08;50.97;99205.41;4905936;28;113162;-79
2023/05/02 10:40:04;;;;;;;;;;;16.10;89.70;;;17.17;50.92;99209.75;4892618;28;119219;-77
2023/05/02 10:42:37;;;;;;;;;;;16.70;90.10;;;17.26;50.70;99211.63;4908972;28;123716;-80
2023/05/02 10:45:11;;;;;;;;;;;16.80;90.00;;;17.38;50.53;99206.03;4894092;28;123929;-78
2023/05/02 10:47:40;;;;;;;;;;;16.90;90.20;;;17.47;49.76;99203.97;4906279;28;119733;-78
2023/05/02 10:50:09;;;;;;;;;;;17.00;89.30;;;17.51;49.29;99206.88;4887958;28;119104;-78
2023/05/02 10:52:39;;;;;;;;;;;17.00;88.70;;;17.54;49.32;99208.97;4902709;28;124803;-79
2023/05/02 10:55:12;;;;;;;;;;;17.10;88.40;;;17.60;49.13;99196.41;4896399;28;123831;-79
2023/05/02 10:58:00;;;;;;;;;;;17.10;88.20;;;17.63;48.36;99201.28;4909729;28;119417;-80
2023/05/02 11:00:33;;;;;;;;;;;17.20;87.30;;;17.70;48.32;99204.28;4896121;28;118832;-79
2023/05/02 11:03:00;;;;;;;;;;;17.20;87.10;;;17.73;47.68;99199.97;4899350;28;123726;-79
2023/05/02 11:05:28;;;;;;;;;;;17.20;86.00;;;17.80;47.53;99195.47;4902175;28;123502;-77
2023/05/02 11:08:16;;;;;;;;;;;17.30;85.90;;;17.88;47.14;99190.94;4897290;28;120497;-79
2023/05/02 11:10:47;;;;;;;;;;;17.40;85.30;;;17.97;45.90;99194.38;4906588;28;118788;-79
2023/05/02 11:13:14;;;;;;;;;;;17.40;83.60;;;17.97;45.69;99185.19;4903578;28;123909;-79
2023/05/02 11:15:40;;;;;;;;;;;17.40;82.90;;;18.04;45.18;99191.00;4907170;28;123036;-80
2023/05/02 11:18:11;;;;;;;;;;;17.50;82.50;;;18.08;45.61;99189.97;4909654;28;118546;-80
2023/05/02 11:20:49;;;;;;;;;;;17.50;83.00;;;18.15;45.79;99188.53;4911337;28;118110;-80
2023/05/02 11:23:24;;;;;;;;;;;17.60;83.20;;;18.21;45.68;99198.31;4893561;28;124380;-80